Stations météo

réclame
Mon MeteoGroup
Puerto de san Isidro, Espagne (8057): Température de l'air & dewpoint: 19.05.2018 12:00:00 - 25.05.2018 12:00:00 (CEST)Puerto de san Isidro, Espagne (8057): Vitesse du vent & gusts: 19.05.2018 12:00:00 - 25.05.2018 12:00:00 (CEST)Puerto de san Isidro, Espagne (8057): Direction du vent: 19.05.2018 12:00:00 - 25.05.2018 12:00:00 (CEST)Puerto de san Isidro, Espagne (8057): visibility: 19.05.2018 12:00:00 - 25.05.2018 12:00:00 (CEST)Puerto de san Isidro, Espagne (8057): Ensoleillement: 19.05.2018 12:00:00 - 25.05.2018 12:00:00 (CEST)Puerto de san Isidro, Espagne (8057): Quantités de précipitations: 19.05.2018 12:00:00 - 25.05.2018 12:00:00 (CEST)
Date & Time tt [°C] td [°C] ff [km/h] ff [knt] fx [km/h] fx [knt] dd vv [km] sd [min] rr [mm]
25.05.2018 12:00:00 10,3 7,7 13 7 21 12 WNW 20 60 0,0
25.05.2018 11:00:00 9,2 7,3 15 8 20 11 W 20 43 0,0
25.05.2018 10:00:00 7,7 5,5 2 1 9 5 NNE 20 26 0,0
25.05.2018 09:00:00 6,7 5,0 5 3 16 9 WSW 20 0 0,0
25.05.2018 08:00:00 8,2 6,8 8 5 16 9 W 20 0 -
25.05.2018 07:00:00 8,1 6,5 5 3 10 6 W 20 0 0,0
25.05.2018 06:00:00 8,3 7,1 5 3 23 13 ENE 20 0 2,4
25.05.2018 05:00:00 8,6 6,8 4 2 12 7 NW 4,3 0 1,2
25.05.2018 04:00:00 8,8 7,0 3 2 14 7 SW 13 0 5,8
25.05.2018 03:00:00 9,2 6,7 5 3 14 8 W 8 0 1,8
25.05.2018 02:00:00 8,8 6,7 8 4 16 8 WNW 20 0 -
25.05.2018 01:00:00 9,6 7,0 10 6 22 12 W 20 0 0,2
25.05.2018 00:00:00 10,2 7,6 9 5 18 10 WNW 20 0 0,0
24.05.2018 23:00:00 10,6 8,5 11 6 16 9 WNW 20 0 0,0
24.05.2018 22:00:00 11,1 8,3 9 5 16 9 WNW 17 0 0,4
24.05.2018 21:00:00 13,0 8,3 9 5 19 10 WNW 20 6 0,0
24.05.2018 20:00:00 13,1 8,8 12 6 29 16 W 20 5 -
24.05.2018 19:00:00 12,9 9,6 21 11 35 19 W 16 32 0,0
24.05.2018 18:00:00 13,8 9,4 19 10 26 14 W 20 4 0,0
24.05.2018 17:00:00 15,1 6,8 11 6 16 9 WNW 20 16 0,0
24.05.2018 16:00:00 14,8 6,5 6 4 16 9 NNW 20 26 0,0
24.05.2018 15:00:00 15,7 4,5 5 3 18 10 NNW 20 35 0,0
24.05.2018 14:00:00 14,7 3,8 5 3 21 12 NW 20 47 -
24.05.2018 13:00:00 14,3 3,4 10 6 19 10 W 20 60 0,0
24.05.2018 12:00:00 13,6 7,1 6 4 9 5 E 20 60 0,0
24.05.2018 11:00:00 11,0 6,4 5 3 8 5 E 20 60 0,0
24.05.2018 10:00:00 5,8 3,9 3 1 5 3 E 20 35 0,0
24.05.2018 09:00:00 4,1 2,5 1 1 6 4 ESE 20 0 0,0
24.05.2018 08:00:00 6,0 3,6 5 3 11 6 SE 20 0 -
24.05.2018 07:00:00 4,5 2,9 3 2 6 3 SE 20 0 0,0
24.05.2018 06:00:00 4,7 3,2 4 2 6 4 WNW 20 0 0,0
24.05.2018 05:00:00 5,9 3,9 3 2 6 4 WNW 20 0 0,0
24.05.2018 04:00:00 8,0 5,6 3 2 13 7 SSE 20 0 0,0
24.05.2018 03:00:00 8,5 4,8 7 4 16 8 E 20 0 0,0
24.05.2018 02:00:00 8,6 5,1 3 2 6 3 S 20 0 -
24.05.2018 01:00:00 8,8 5,1 3 2 6 3 ESE 20 0 0,0
24.05.2018 00:00:00 9,6 5,1 4 2 14 8 WNW 20 0 0,0
23.05.2018 23:00:00 10,7 7,1 11 6 18 10 WNW 20 0 0,0
23.05.2018 22:00:00 11,6 7,0 7 4 10 5 WNW 20 0 0,0
23.05.2018 21:00:00 12,2 6,1 5 3 16 8 W 20 0 0,0
23.05.2018 20:00:00 11,4 6,1 11 6 26 14 W 20 0 -
23.05.2018 19:00:00 12,2 7,3 18 10 28 15 W 20 30 0,2
23.05.2018 18:00:00 12,3 9,3 4 2 18 10 WNW 20 4 0,0
23.05.2018 17:00:00 9,8 7,0 12 6 29 16 W 17 0 10,2
23.05.2018 16:00:00 14,1 8,1 5 3 18 10 SSW 17 0 1,4
23.05.2018 15:00:00 15,0 7,6 15 8 20 11 WNW 20 27 0,0
23.05.2018 14:00:00 16,2 6,1 6 4 19 11 WNW 20 60 -
23.05.2018 13:00:00 14,9 5,9 13 7 25 13 E 20 52 0,0
23.05.2018 12:00:00 12,3 4,3 9 5 14 8 E 20 11 0,0
23.05.2018 11:00:00 11,4 4,8 8 4 15 8 ENE 20 25 0,0
23.05.2018 10:00:00 9,1 3,8 5 3 8 4 ESE 20 1 0,0
23.05.2018 09:00:00 8,7 4,3 3 2 9 5 ESE 20 0 0,0
23.05.2018 08:00:00 9,2 5,0 5 3 15 8 ESE 20 0 -
23.05.2018 07:00:00 9,5 5,5 9 5 16 8 E 20 0 0,0
23.05.2018 06:00:00 8,6 6,1 4 2 12 7 W 20 0 0,0
23.05.2018 05:00:00 8,7 6,5 1 1 7 4 W 20 0 0,0
23.05.2018 04:00:00 8,5 6,7 4 2 15 8 WNW 12 0 0,0
23.05.2018 03:00:00 8,7 6,8 10 5 12 7 W 14 0 0,0
23.05.2018 02:00:00 8,7 7,0 7 4 18 10 W 7 0 -
23.05.2018 01:00:00 9,6 7,7 13 7 17 9 W 10 0 0,0
23.05.2018 00:00:00 9,5 7,4 13 7 19 10 WNW 12 0 0,0
22.05.2018 23:00:00 11,6 7,8 13 7 25 14 WNW 20 53 0,0
22.05.2018 22:00:00 13,6 8,7 16 9 27 14 WNW 20 60 0,0
22.05.2018 21:00:00 14,3 8,3 21 11 28 15 W 20 59 0,0
22.05.2018 20:00:00 14,4 7,4 20 11 32 17 NNW 20 60 -
22.05.2018 19:00:00 15,4 7,4 16 9 33 18 NW 20 60 0,0
22.05.2018 18:00:00 15,1 5,8 17 9 30 16 NW 20 60 0,0
22.05.2018 17:00:00 15,0 6,5 16 8 31 17 NW 19 60 0,0
22.05.2018 16:00:00 14,5 6,4 11 6 22 12 NW 20 50 0,0
22.05.2018 15:00:00 14,0 3,9 13 7 23 13 NW 20 60 0,0
22.05.2018 14:00:00 13,3 4,1 14 7 24 13 NNW 20 60 -
22.05.2018 13:00:00 13,1 4,5 13 7 19 11 W 20 57 0,0
22.05.2018 12:00:00 13,4 4,5 3 2 8 4 E 20 60 0,0
22.05.2018 11:00:00 10,0 3,0 4 2 6 4 E 20 60 0,0
22.05.2018 10:00:00 4,2 1,5 3 2 8 4 W 20 34 0,0
22.05.2018 09:00:00 2,6 0,4 5 3 9 5 W 20 0 0,0
22.05.2018 08:00:00 2,2 -0,5 6 3 10 5 W 20 0 -
22.05.2018 07:00:00 2,7 0,2 1 1 10 5 W 20 0 0,0
22.05.2018 06:00:00 2,8 1,1 7 4 9 5 WNW 13 0 0,0
22.05.2018 05:00:00 4,1 2,1 4 2 9 5 W 3,7 0 0,0
22.05.2018 04:00:00 5,6 3,8 5 3 9 5 WNW 11 0 0,0
22.05.2018 03:00:00 6,2 4,3 7 4 12 6 WNW 6 0 0,0
22.05.2018 02:00:00 7,4 5,9 8 5 15 8 WNW 8 0 -
22.05.2018 01:00:00 7,0 4,3 7 4 12 6 WNW 20 0 0,0
22.05.2018 00:00:00 8,2 5,1 5 3 17 9 WNW 20 0 0,0
21.05.2018 23:00:00 10,6 5,8 13 7 20 11 W 20 2 0,0
21.05.2018 22:00:00 11,4 5,3 11 6 19 10 WNW 20 4 0,0
21.05.2018 21:00:00 12,1 4,6 11 6 17 9 W 20 3 0,0
21.05.2018 20:00:00 11,2 5,8 3 2 9 5 E 20 0 -
21.05.2018 19:00:00 9,8 5,8 8 4 13 7 E 20 0 0,0
21.05.2018 18:00:00 9,2 5,0 4 2 - - SE 20 0 1,8
21.05.2018 17:00:00 12,0 6,2 16 9 23 12 E 20 0 0,0
21.05.2018 16:00:00 13,2 2,7 8 4 27 15 E 20 12 0,0
21.05.2018 15:00:00 14,3 2,9 11 6 24 13 N 20 36 0,0
21.05.2018 14:00:00 14,6 1,5 13 7 31 17 WNW 20 32 -
21.05.2018 13:00:00 14,4 -0,5 3 2 14 8 N 20 60 0,0
21.05.2018 12:00:00 12,9 5,8 9 5 15 8 E 20 60 0,0
21.05.2018 11:00:00 10,5 5,5 6 3 9 5 E 20 60 0,0
21.05.2018 10:00:00 5,2 3,0 1 1 6 3 S 20 34 0,0
21.05.2018 09:00:00 3,5 1,7 2 1 9 5 S 20 0 0,0
21.05.2018 08:00:00 4,9 2,3 2 1 9 5 N 20 0 -
21.05.2018 07:00:00 6,2 3,2 6 3 24 13 ESE 20 0 0,0
21.05.2018 06:00:00 6,9 3,4 12 6 26 14 E 20 0 0,0
21.05.2018 05:00:00 7,5 3,9 9 5 27 15 E 20 0 0,0
21.05.2018 04:00:00 8,3 3,8 9 5 25 14 E 20 0 0,0
21.05.2018 03:00:00 5,6 3,6 3 2 7 4 ESE 20 0 0,0
21.05.2018 02:00:00 5,8 3,4 4 2 9 5 W 20 0 -
21.05.2018 01:00:00 6,4 4,3 4 2 14 8 W 20 0 0,0
21.05.2018 00:00:00 7,5 4,6 11 6 16 9 W 20 3 0,0
20.05.2018 23:00:00 11,8 6,1 11 6 22 12 WNW 20 60 0,0
20.05.2018 22:00:00 12,7 6,1 18 10 27 14 W 20 60 0,0
20.05.2018 21:00:00 14,0 6,4 17 9 26 14 W 20 60 0,0
20.05.2018 20:00:00 14,5 5,8 16 9 25 14 W 20 60 -
20.05.2018 19:00:00 14,4 5,8 13 7 27 15 WNW 20 60 0,0
20.05.2018 18:00:00 14,2 5,3 18 10 30 16 WNW 20 60 0,0
20.05.2018 17:00:00 14,9 5,1 15 8 26 14 W 20 60 0,0
20.05.2018 16:00:00 14,4 -2,5 8 4 23 13 N 20 60 0,0
20.05.2018 15:00:00 13,3 -3,0 9 5 23 12 WNW 20 60 0,0
20.05.2018 14:00:00 12,2 -0,3 14 8 24 13 WNW 20 60 -
20.05.2018 13:00:00 11,8 -5,7 14 7 19 11 W 20 60 0,0
20.05.2018 12:00:00 10,3 -6,0 9 5 18 10 WNW 20 60 0,0
20.05.2018 11:00:00 8,7 -6,0 14 7 16 9 W 20 60 0,0
20.05.2018 10:00:00 2,9 -7,1 7 4 13 7 WNW 20 34 0,0
20.05.2018 09:00:00 0,7 -7,5 8 4 11 6 WNW 20 0 0,0
20.05.2018 08:00:00 1,8 -5,7 3 2 10 5 WSW 20 0 -
20.05.2018 07:00:00 2,3 -3,6 5 3 10 6 NW 20 0 0,0
20.05.2018 06:00:00 2,8 -3,9 7 4 14 7 WNW 20 0 0,0
20.05.2018 05:00:00 2,3 -1,7 8 4 11 6 NW 20 0 0,0
20.05.2018 04:00:00 4,1 0,2 5 3 10 6 WSW 20 0 0,0
20.05.2018 03:00:00 3,8 1,3 7 4 11 6 WNW 20 0 0,0
20.05.2018 02:00:00 5,1 3,4 6 4 14 8 WNW 17 0 -
20.05.2018 01:00:00 6,0 3,4 9 5 18 10 W 17 0 0,0
20.05.2018 00:00:00 7,9 5,9 10 5 21 11 W 11 0 0,0
19.05.2018 23:00:00 9,7 7,0 16 8 24 13 WNW 17 7 0,0
19.05.2018 22:00:00 11,0 6,4 15 8 32 17 NNW 20 49 0,0
19.05.2018 21:00:00 12,8 6,4 16 9 27 15 NW 20 57 0,0
19.05.2018 20:00:00 12,4 6,7 16 9 29 15 NNW 20 48 -
19.05.2018 19:00:00 13,3 7,1 17 9 31 17 NNW 20 57 0,0
19.05.2018 18:00:00 12,4 6,4 21 12 30 16 NW 20 38 0,0
19.05.2018 17:00:00 13,1 6,8 19 10 30 16 NW 20 39 0,0
19.05.2018 16:00:00 13,2 5,8 15 8 27 14 NW 20 55 0,0
19.05.2018 15:00:00 13,7 5,1 12 6 23 13 NW 20 60 0,0
19.05.2018 14:00:00 13,5 5,6 13 7 22 12 W 20 60 -
19.05.2018 13:00:00 12,7 4,8 9 5 21 11 N 20 60 0,0
19.05.2018 12:00:00 12,3 3,9 4 2 11 6 E 20 60 0,0

tt = Température de l'air
td = dewpoint
ff = Vitesse du vent
fx = gusts
dd = Direction du vent
vv = visibility
sd = Ensoleillement
rr = Quantités de précipitations

stations d'obs. à proximité